Portada
METAR-TAF:

METAR-TAF

Aeroports :

Al-Kuwait, Kuwait

latitud: 29-13N, longitud: 047-59E, altitud: 55 m

Observació

L'informe es va fer fa 51 minuts, a les 18:00 UTC
Vent calma
Temperatura 14°C
Humitat 33%
Pressió 1020 hPa
Visibilitat 10 km o més
sense núvols per sota de 1500 mi sense presència de cumulonimbus.

METAR: OKBK 211800Z 00000KT CAVOK 14/M02 Q1020 NOSIG

Hora: 21:51 (18:51 UTC)

Pronòstic

L'informe es va fer fa 2 hores i 6 minuts, a les 16:45 UTC
Pronòstic vàlid del 21 a les 18 UTC al 22 a les 24 UTC
Vent 8 kt del Nord/Nord-Est
Visibilitat: 8000 m
Cel clar
Temporalment
l' 21 a les 21 UTC al 22 a les 06 UTC
Vent 3 kt amb direcció variable

TAF: OKBK 211645Z 2118/2224 03008KT 8000 SKC TEMPO 2121/2206 VRB03KT

Observacions i pronòstics meteorològics de més de 4000 aeroports (METAR i TAF).

Les estacions disponibles són els punts grocs i vermells al mapa.

Posi el ratolí al punt desitjat per veure el nom de l'estació.

Feu clic per veure les observacions i els pronòstics meteorològics.

Per canviar el mapa: feu clic els botons verds amb una creu de color negre per apropar; al botó verd amb un guió per allunyar la imatge; o en les fletxes verdes per a mapes adjacents.


METAR-TAF: